Latest Weather Observations for St Lawrence

IDQ60801

Issued at 7:02 am EST Sunday 22 October 2017 (issued every 30 minutes, with the page automatically refreshed every 10 minutes)

About weather observations | Map of weather stations | Latest weather observations for QLD | Other Formats
Station Details ID: 033210 Name: ST LAWRENCE Lat: -22.35 Lon: 149.52 Height: 9.19 m
Data from the previous 72 hours. | See also: Recent months at St Lawrence
Date/Time
EST
Temp
°C
App
Temp
°C
Dew
Point
°C
Rel
Hum
%
Delta-T
°C
Wind Press
QNH
hPa
Press
MSL
hPa
Rain since
9am
mm
Dir  Spd
km/h
Gust
km/h
Spd
kts
Gust
kts
22/07:00am 20.1 22.9 18.9 93 0.8 S 2 7 1 4 1012.3 1012.2 1.2
22/06:30am 18.7 20.8 18.0 96 0.4 SW 4 9 2 5 1012.2 1012.1 1.2
22/06:00am 17.9 20.4 17.3 96 0.4 CALM 0 0 0 0 1012.1 1012.0 1.2
22/05:30am 17.7 20.1 16.9 95 0.5 CALM 0 0 0 0 1011.9 1011.8 1.2
22/05:00am 18.0 20.1 17.2 95 0.5 S 2 6 1 3 1011.7 1011.6 1.2
22/04:30am 18.2 19.6 17.4 95 0.5 SSW 6 7 3 4 1011.4 1011.3 1.2
22/04:00am 18.4 21.0 17.6 95 0.5 CALM 0 0 0 0 1011.3 1011.2 1.2
22/03:30am 18.5 21.2 17.7 95 0.5 CALM 0 0 0 0 1011.0 1010.9 1.2
22/03:00am 18.8 21.6 18.0 95 0.5 CALM 0 0 0 0 1011.0 1010.9 1.2
22/02:30am 19.2 21.8 18.4 95 0.5 SW 2 6 1 3 1011.2 1011.1 1.2
22/02:00am 19.5 22.2 18.7 95 0.5 W 2 6 1 3 1011.6 1011.5 1.2
22/01:30am 19.8 21.9 19.0 95 0.5 W 6 7 3 4 1011.9 1011.8 1.2
22/01:00am 19.9 23.1 18.9 94 0.6 CALM 0 0 0 0 1012.1 1012.0 1.2
22/12:30am 20.1 23.4 19.1 94 0.6 CALM 0 0 0 0 1012.2 1012.1 1.2
22/12:00am 20.2 23.5 19.2 94 0.6 CALM 0 0 0 0 1012.7 1012.6 1.2
 
Date/Time
EST
Temp
°C
App
Temp
°C
Dew
Point
°C
Rel
Hum
%
Delta-T
°C
Wind Press
QNH
hPa
Press
MSL
hPa
Rain since
9am
mm
Dir  Spd
km/h
Gust
km/h
Spd
kts
Gust
kts
21/11:30pm 20.0 22.5 19.0 94 0.6 SSW 4 7 2 4 1013.1 1013.0 1.2
21/11:00pm 20.1 22.5 18.9 93 0.8 WSW 4 7 2 4 1013.1 1013.0 1.2
21/10:30pm 20.2 23.4 18.9 92 0.8 CALM 0 0 0 0 1013.1 1013.0 1.2
21/10:00pm 20.6 24.0 19.3 92 0.8 CALM 0 0 0 0 1013.3 1013.2 1.2
21/09:30pm 20.9 24.3 19.4 91 1.0 CALM 0 0 0 0 1013.3 1013.2 1.2
21/09:00pm 21.0 24.5 19.5 91 1.0 CALM 0 0 0 0 1013.1 1013.0 1.2
21/08:30pm 21.2 24.8 19.8 92 0.9 CALM 0 0 0 0 1013.1 1013.0 1.2
21/08:00pm 21.4 25.1 20.0 92 0.9 CALM 0 0 0 0 1013.0 1012.9 1.2
21/07:30pm 21.8 25.7 20.3 91 1.0 CALM 0 0 0 0 1012.9 1012.8 1.2
21/07:00pm 21.7 25.3 19.8 89 1.2 CALM 0 0 0 0 1012.7 1012.6 1.2
21/06:30pm 21.8 25.5 19.9 89 1.2 CALM 0 0 0 0 1012.4 1012.3 1.2
21/06:00pm 22.1 25.6 19.6 86 1.6 CALM 0 0 0 0 1012.2 1012.1 1.2
21/05:30pm 22.4 25.9 19.6 84 1.8 CALM 0 0 0 0 1011.9 1011.8 1.2
21/05:00pm 22.3 25.5 19.8 86 1.6 ESE 2 7 1 4 1011.9 1011.8 1.2
21/04:30pm 22.4 25.9 19.6 84 1.8 CALM 0 4 0 2 1012.0 1011.9 1.2
21/04:00pm 22.6 25.6 20.1 86 1.6 SE 4 6 2 3 1012.1 1012.0 1.0
21/03:30pm 22.4 25.0 20.1 87 1.5 SSW 6 9 3 5 1012.3 1012.2 1.0
21/03:00pm 22.6 25.1 19.9 85 1.7 SW 6 9 3 5 1012.4 1012.3 0.4
21/02:30pm 22.8 25.2 20.0 84 1.8 W 7 13 4 7 1012.3 1012.2 0.2
21/02:00pm 22.8 24.7 19.0 79 2.4 NW 7 9 4 5 1012.3 1012.2 0.0
21/01:30pm 22.7 24.9 19.1 80 2.3 W 6 9 3 5 1012.8 1012.7 0.0
21/01:00pm 22.7 24.5 19.5 82 2.0 SSE 9 15 5 8 1013.2 1013.1 0.0
21/12:30pm 22.7 23.9 19.1 80 2.3 S 11 15 6 8 1013.7 1013.6 0.0
21/12:00pm 23.9 24.5 18.5 72 3.4 S 13 20 7 11 1014.1 1014.0 0.0
21/11:30am 25.3 26.8 18.0 64 4.6 SSW 7 11 4 6 1014.4 1014.3 0.0
21/11:00am 25.2 26.7 18.9 68 4.0 SSW 9 13 5 7 1014.8 1014.7 0.0
21/10:30am 24.9 27.1 19.5 72 3.5 SSW 7 13 4 7 1015.2 1015.1 0.0
21/10:00am 24.2 25.8 19.1 73 3.3 SSW 9 13 5 7 1015.3 1015.2 0.0
21/09:30am 23.7 25.2 19.0 75 3.0 SSW 9 13 5 7 1015.3 1015.2 0.0
21/09:00am 23.8 25.7 18.9 74 3.1 SSW 7 11 4 6 1015.2 1015.1 0.0
21/08:30am 23.7 26.0 18.6 73 3.2 NNE 4 7 2 4 1015.2 1015.1 0.0
21/08:00am 23.4 26.1 18.7 75 3.0 N 2 7 1 4 1015.1 1015.0 0.0
21/07:30am 22.8 25.0 18.3 76 2.8 W 4 7 2 4 1014.8 1014.7 0.0
21/07:00am 21.9 23.7 18.3 80 2.2 NNW 6 9 3 5 1014.8 1014.7 0.0
21/06:30am 21.1 24.0 18.3 84 1.7 CALM 0 0 0 0 1015.0 1014.9 0.0
21/06:00am 20.7 23.2 18.1 85 1.6 WSW 2 6 1 3 1014.7 1014.6 0.0
21/05:30am 20.6 23.5 18.2 86 1.5 CALM 0 6 0 3 1014.6 1014.5 0.0
21/05:00am 20.7 22.4 18.1 85 1.6 S 6 7 3 4 1014.3 1014.2 0.0
21/04:30am 20.7 22.8 18.1 85 1.6 S 4 7 2 4 1014.2 1014.1 0.0
21/04:00am 20.8 22.6 18.2 85 1.6 SSE 6 7 3 4 1014.2 1014.1 0.0
21/03:30am 20.8 23.8 18.4 86 1.5 CALM 0 0 0 0 1014.2 1014.1 0.0
21/03:00am 21.0 22.5 18.0 83 1.9 SSE 7 9 4 5 1014.3 1014.2 0.0
21/02:30am 21.1 22.8 18.1 83 1.9 SSE 6 7 3 4 1014.7 1014.6 0.0
21/02:00am 21.2 23.5 17.8 81 2.1 SSE 2 7 1 4 1014.9 1014.8 0.0
21/01:30am 21.5 23.0 17.7 79 2.3 ESE 6 7 3 4 1015.2 1015.1 0.0
21/01:00am 21.9 23.4 17.7 77 2.6 E 6 9 3 5 1015.3 1015.2 0.0
21/12:30am 22.4 24.0 17.8 75 2.9 E 6 9 3 5 1015.4 1015.3 0.0
21/12:00am 22.8 24.5 18.1 75 2.9 E 6 7 3 4 1015.8 1015.7 0.0
 
Date/Time
EST
Temp
°C
App
Temp
°C
Dew
Point
°C
Rel
Hum
%
Delta-T
°C
Wind Press
QNH
hPa
Press
MSL
hPa
Rain since
9am
mm
Dir  Spd
km/h
Gust
km/h
Spd
kts
Gust
kts
20/11:30pm 22.9 24.6 18.0 74 3.1 E 6 7 3 4 1016.2 1016.2 0.0
20/11:00pm 23.0 25.1 18.1 74 3.1 E 4 9 2 5 1016.4 1016.4 0.0
20/10:30pm 23.0 24.6 17.9 73 3.2 ENE 6 9 3 5 1016.7 1016.7 0.0
20/10:00pm 23.0 24.9 17.7 72 3.3 ENE 4 9 2 5 1016.7 1016.7 0.0
20/09:30pm 23.4 24.2 17.4 69 3.7 NE 9 13 5 7 1016.8 1016.8 0.0
20/09:00pm 23.6 24.0 17.3 67 3.9 NE 11 17 6 9 1016.7 1016.7 0.0
20/08:30pm 23.6 24.7 18.0 71 3.5 NE 9 13 5 7 1016.6 1016.6 0.0
20/08:00pm 23.9 24.6 17.9 69 3.7 NE 11 15 6 8 1016.7 1016.7 0.0
20/07:30pm 24.0 24.7 18.0 69 3.8 NNE 11 15 6 8 1016.6 1016.6 0.0
20/07:00pm 24.2 25.1 18.4 70 3.7 NNE 11 15 6 8 1016.5 1016.5 0.0
20/06:30pm 24.1 24.4 17.8 68 3.9 NE 13 20 7 11 1016.4 1016.4 0.0
20/06:00pm 24.5 24.6 18.4 69 3.8 NNE 15 22 8 12 1016.1 1016.1 0.0
20/05:30pm 25.1 25.6 18.3 66 4.3 N 13 19 7 10 1016.0 1015.9 0.0
20/05:00pm 25.6 26.1 18.3 64 4.6 NNE 13 17 7 9 1015.9 1015.8 0.0
20/04:30pm 25.3 25.5 17.7 62 4.8 NNE 13 17 7 9 1015.9 1015.8 0.0
20/04:00pm 25.8 25.9 17.4 59 5.2 N 13 19 7 10 1015.9 1015.8 0.0
20/03:30pm 25.8 25.8 18.0 62 4.9 NNE 15 19 8 10 1016.0 1015.9 0.0
20/03:00pm 25.8 25.9 17.4 59 5.2 NNE 13 19 7 10 1016.2 1016.2 0.0
20/02:30pm 26.1 25.6 16.9 57 5.7 NNE 15 22 8 12 1016.3 1016.3 0.0
20/02:00pm 26.3 26.0 17.4 58 5.6 NNE 15 20 8 11 1016.8 1016.8 0.0
20/01:30pm 26.7 26.2 16.9 55 6.1 NE 15 24 8 13 1016.9 1016.9 0.0
20/01:00pm 26.9 27.0 17.4 56 6.0 NE 13 20 7 11 1017.3 1017.3 0.0
20/12:30pm 27.0 25.9 17.2 55 6.1 NNE 19 28 10 15 1017.7 1017.7 0.0
20/12:00pm 27.1 26.1 16.7 53 6.4 NE 17 26 9 14 1018.0 1018.0 0.0
20/11:30am 26.7 26.5 16.6 54 6.3 ENE 13 22 7 12 1018.4 1018.4 0.0
20/11:00am 27.4 27.2 17.6 55 6.2 ENE 15 22 8 12 1018.8 1018.8 0.0
20/10:30am 26.7 25.4 16.9 55 6.1 NE 19 28 10 15 1019.1 1019.1 0.0
20/10:00am 26.4 26.3 16.9 56 5.9 ENE 13 20 7 11 1019.2 1019.2 0.0
20/09:30am 26.1 25.2 15.8 53 6.3 ENE 15 24 8 13 1019.4 1019.4 0.0
20/09:00am 25.5 26.3 18.2 64 4.6 E 11 20 6 11 1019.4 1019.4 0.4
20/08:30am 24.8 26.0 17.3 63 4.7 SE 7 17 4 9 1019.4 1019.4 0.4
20/08:00am 23.6 24.5 17.6 69 3.7 SSE 9 17 5 9 1019.5 1019.5 0.4
20/07:30am 22.5 24.2 18.5 78 2.5 S 7 11 4 6 1019.4 1019.4 0.4
20/07:00am 21.5 22.4 18.3 82 2.0 S 11 17 6 9 1019.2 1019.2 0.4
20/06:30am 20.6 21.9 18.4 87 1.4 SSE 9 13 5 7 1019.2 1019.2 0.4
20/06:00am 19.6 20.6 17.7 89 1.2 S 9 11 5 6 1018.9 1018.9 0.4
20/05:30am 19.3 20.2 17.6 90 1.0 S 9 13 5 7 1018.7 1018.7 0.4
20/05:00am 19.1 19.9 17.4 90 1.0 S 9 11 5 6 1018.5 1018.5 0.4
20/04:30am 19.2 20.1 17.5 90 1.0 S 9 11 5 6 1018.1 1018.1 0.4
20/04:00am 19.1 20.3 17.4 90 1.0 S 7 9 4 5 1018.1 1018.1 0.4
20/03:30am 19.2 20.4 17.3 89 1.2 S 7 9 4 5 1017.9 1017.9 0.4
20/03:00am 19.7 21.2 17.7 88 1.2 S 6 7 3 4 1018.0 1018.0 0.4
20/02:30am 19.9 21.4 18.0 89 1.2 S 7 9 4 5 1018.2 1018.2 0.4
20/02:00am 20.2 21.7 18.0 87 1.4 S 7 9 4 5 1018.3 1018.3 0.4
20/01:30am 20.7 22.2 18.1 85 1.6 SSE 7 11 4 6 1018.5 1018.5 0.4
20/01:00am 20.7 22.3 18.3 86 1.5 S 7 11 4 6 1019.0 1019.0 0.4
20/12:30am 20.5 22.1 18.3 87 1.4 SSE 7 11 4 6 1019.5 1019.5 0.4
20/12:00am 20.8 22.2 18.6 87 1.4 SSE 9 13 5 7 1019.9 1019.9 0.4
 
Date/Time
EST
Temp
°C
App
Temp
°C
Dew
Point
°C
Rel
Hum
%
Delta-T
°C
Wind Press
QNH
hPa
Press
MSL
hPa
Rain since
9am
mm
Dir  Spd
km/h
Gust
km/h
Spd
kts
Gust
kts
19/11:30pm 20.9 22.2 18.5 86 1.5 SSE 9 11 5 6 1020.2 1020.2 0.4
19/11:00pm 21.5 22.6 18.1 81 2.1 S 9 11 5 6 1020.5 1020.5 0.4
19/10:30pm 21.7 23.3 18.3 81 2.1 SSE 7 11 4 6 1020.8 1020.8 0.4
19/10:00pm 22.2 23.7 18.0 77 2.6 SSE 7 11 4 6 1020.9 1020.9 0.4
19/09:30pm 22.6 23.8 18.2 76 2.8 SE 9 17 5 9 1020.7 1020.7 0.4
19/09:00pm 22.7 24.0 18.5 77 2.6 ESE 9 15 5 8 1020.5 1020.5 0.4
19/08:30pm 23.0 24.3 18.5 76 2.8 ESE 9 15 5 8 1020.1 1020.1 0.4
19/08:00pm 23.2 24.5 18.5 75 3.0 ESE 9 15 5 8 1020.0 1020.0 0.4
19/07:30pm 23.4 25.1 18.5 74 3.1 ESE 7 13 4 7 1020.1 1020.1 0.4
19/07:00pm 23.6 24.9 18.5 73 3.2 SE 9 13 5 7 1019.9 1019.9 0.4
19/06:30pm 23.8 25.1 18.4 72 3.4 ESE 9 13 5 7 1019.4 1019.4 0.4
19/06:00pm 24.0 25.4 18.6 72 3.4 ESE 9 17 5 9 1018.9 1018.9 0.4
19/05:30pm 24.1 24.9 19.0 73 3.2 ESE 13 20 7 11 1018.5 1018.5 0.4
19/05:00pm 24.9 25.7 19.1 70 3.7 ENE 13 22 7 12 1018.1 1018.1 0.4
19/04:30pm 25.1 25.1 19.0 69 3.9 ENE 17 30 9 16 1018.0 1018.0 0.4
19/04:00pm 24.8 25.5 19.6 73 3.3 ENE 15 22 8 12 1017.8 1017.8 0.4
19/03:30pm 25.9 25.4 19.1 66 4.4 E 20 33 11 18 1017.5 1017.5 0.4
19/03:00pm 26.6 25.9 19.5 65 4.6 ENE 22 39 12 21 1017.5 1017.5 0.4
19/02:30pm 25.9 25.7 19.3 67 4.2 ENE 19 33 10 18 1017.7 1017.7 0.4
19/02:00pm 25.8 25.3 19.0 66 4.3 ENE 20 32 11 17 1018.1 1018.1 0.4
19/01:30pm 26.1 25.9 19.7 68 4.1 ENE 20 32 11 17 1018.3 1018.3 0.4
19/01:00pm 27.0 25.6 19.6 64 4.8 ENE 26 39 14 21 1018.3 1018.3 0.4
19/12:30pm 26.1 26.3 20.2 70 3.8 E 19 33 10 18 1018.6 1018.6 0.4
19/12:00pm 25.0 25.0 20.9 78 2.7 ENE 22 41 12 22 1018.9 1018.9 0.4
19/11:30am 27.1 27.1 20.2 66 4.5 ENE 20 35 11 19 1018.6 1018.6 0.0
19/11:00am 26.2 26.1 19.6 67 4.3 E 19 33 10 18 1018.9 1018.9 0.0
19/10:30am 27.4 27.7 19.7 63 5.0 E 17 28 9 15 1018.9 1018.9 0.0
19/10:00am 25.3 27.2 20.5 75 3.1 E 11 17 6 9 1019.2 1019.2 0.0
19/09:30am 25.0 26.2 19.8 73 3.4 ESE 13 24 7 13 1019.2 1019.2 0.0
19/09:00am 25.1 26.4 20.1 74 3.2 ESE 13 20 7 11 1019.0 1019.0 20.4
19/08:30am 24.9 26.3 20.4 76 2.9 ESE 13 20 7 11 1018.8 1018.8 20.4
19/08:00am 24.6 25.6 20.3 77 2.8 ESE 15 22 8 12 1018.6 1018.6 20.4
19/07:30am 24.8 26.0 20.7 78 2.7 ESE 15 26 8 14 1018.3 1018.3 20.4

Other Formats:

Comma delimited format used in spreadsheet applications
http://www.bom.gov.au/fwo/IDQ60801/IDQ60801.95369.axf

JavaScript Object Notation format (JSON) in row-major order
http://www.bom.gov.au/fwo/IDQ60801/IDQ60801.95369.json